Battle Creek, Nebraska
Current Conditions -  °F | °C
As of 11:56 PM on Sunday 19 Oct 2014 (Local Time) from KOFK Reporting Station
Clear Clear  
Wind Chill: 50°   Ceiling: Unl
Heat Index: 50°   Visibility: 10mi
Dew Point: 42°   Wind: 6mph
Humidity: 74%   Direction: 280°W
Pressure: 29.98"   Gusts: NA
Location:  42°N, 97.6°W
Report Text: KOFK 200456Z AUTO 28005KT 10SM CLR 10/06 A2998 RMK AO2 SLP150 T01000056
Loading
Personal Weather Stations






























Interactive Weather Map
Tropical Storm Tracking
New forecast layout! Learn more

10-Day Weather Forecast

Advertisements
Track Severe Weather on mobile